Time;durP1;ratioP1;P1;durP2;ratioP2;P2;SDS_P1;SDS_P2;PMS_P1;PMS_P2;Temp;Humidity;BMP_temperature;BMP_pressure;BME280_temperature;BME280_humidity;BME280_pressure;Samples;Min_cycle;Max_cycle;Signal;HPM_P1;HPM_P2
2023/06/11 07:43:34;;;;;;;;;;;;;;;;;;5110218;27;20435;-76
2023/06/11 07:46:01;;;;;;;;;;;;;;;;;;5094456;28;19938;-76
2023/06/11 07:48:27;;;;;;;;;;;;;;;;;;5110962;27;20022;-77
2023/06/11 07:50:53;;;;;;;;;;;;;;;;;;5128882;27;19939;-76
2023/06/11 07:53:21;;;;;;;;;;;;;;;;;;5111349;27;19928;-75
2023/06/11 07:55:47;;;;;;;;;;;;;;;;;;5094779;27;19939;-77
2023/06/11 07:58:13;;;;;;;;;;;;;;;;;;5096290;28;19938;-76
2023/06/11 08:00:39;;;;;;;;;;;;;;;;;;5091365;28;19923;-75
2023/06/11 08:03:05;;;;;;;;;;;;;;;;;;5094571;28;19974;-77
2023/06/11 08:05:31;;;;;;;;;;;;;;;;;;5094066;28;19932;-77
2023/06/11 08:07:57;;;;;;;;;;;;;;;;;;5094682;28;19923;-77
2023/06/11 08:10:23;;;;;;;;;;;;;;;;;;5092693;28;19939;-77
2023/06/11 08:12:49;;;;;;;;;;;;;;;;;;5094420;28;19924;-77
2023/06/11 08:15:15;;;;;;;;;;;;;;;;;;5112031;27;19963;-77
2023/06/11 08:17:41;;;;;;;;;;;;;;;;;;5094589;28;20033;-77
2023/06/11 08:20:07;;;;;;;;;;;;;;;;;;5088537;28;19923;-77
2023/06/11 08:22:33;;;;;;;;;;;;;;;;;;5092793;27;19954;-79
2023/06/11 08:24:59;;;;;;;;;;;;;;;;;;5110084;27;21632;-79
2023/06/11 08:27:25;;;;;;;;;;;;;;;;;;5110656;27;20015;-79
2023/06/11 08:29:51;;;;;;;;;;;;;;;;;;5097544;28;19989;-80
2023/06/11 08:32:17;;;;;;;;;;;;;;;;;;5098431;28;19927;-79
2023/06/11 08:34:43;;;;;;;;;;;;;;;;;;5112136;27;19928;-79
2023/06/11 08:37:09;;;;;;;;;;;;;;;;;;5114212;27;19932;-80
2023/06/11 08:39:35;;;;;;;;;;;;;;;;;;5096398;28;19923;-79
2023/06/11 08:42:01;;;;;;;;;;;;;;;;;;5094878;28;19932;-79
2023/06/11 08:44:27;;;;;;;;;;;;;;;;;;5092263;28;19950;-79
2023/06/11 08:46:53;;;;;;;;;;;;;;;;;;5093642;28;19932;-79
2023/06/11 08:49:18;;;;;;;;;;;;;;;;;;5094109;28;19935;-79
2023/06/11 08:51:44;;;;;;;;;;;;;;;;;;5126742;27;20452;-81
2023/06/11 08:54:10;;;;;;;;;;;;;;;;;;5097588;27;19931;-79
2023/06/11 08:56:36;;;;;;;;;;;;;;;;;;5082048;28;19927;-81
2023/06/11 08:59:02;;;;;;;;;;;;;;;;;;5098663;27;19924;-81
2023/06/11 09:01:28;;;;;;;;;;;;;;;;;;5114438;27;20409;-81
2023/06/11 09:03:54;;;;;;;;;;;;;;;;;;5079600;28;20001;-80
2023/06/11 09:06:20;;;;;;;;;;;;;;;;;;5098602;27;19970;-82
2023/06/11 09:08:46;;;;;;;;;;;;;;;;;;5097599;27;19939;-81
2023/06/11 09:11:12;;;;;;;;;;;;;;;;;;5076060;28;19928;-81
2023/06/11 09:13:38;;;;;;;;;;;;;;;;;;5095341;27;19928;-82
2023/06/11 09:16:04;;;;;;;;;;;;;;;;;;5079269;28;20092;-82
2023/06/11 09:18:30;;;;;;;;;;;;;;;;;;5099109;27;19924;-81
2023/06/11 09:20:57;;;;;;;;;;;;;;;;;;5112784;27;19951;-82
2023/06/11 09:23:23;;;;;;;;;;;;;;;;;;5114471;27;19939;-79
2023/06/11 09:25:49;;;;;;;;;;;;;;;;;;5079047;28;19959;-80
2023/06/11 09:28:15;;;;;;;;;;;;;;;;;;5097233;27;20548;-80
2023/06/11 16:07:17;;;;;;;;;;;;;;;;;;6143623;22;2137042;-82
2023/06/11 16:09:43;;;;;;;;;;;;;;;;;;6209447;23;19923;-81
2023/06/11 16:12:08;;;;;;;;;;;;;;;;;;6177776;23;19924;-81
2023/06/11 16:14:34;;;;;;;;;;;;;;;;;;6177567;23;19928;-82
2023/06/11 16:17:00;;;;;;;;;;;;;;;;;;6184045;23;19920;-81
2023/06/11 16:19:26;;;;;;;;;;;;;;;;;;6183017;23;20404;-82
2023/06/11 16:21:52;;;;;;;;;;;;;;;;;;6157837;23;19920;-81
2023/06/11 16:24:18;;;;;;;;;;;;;;;;;;6181640;23;19923;-81
2023/06/11 16:26:47;;;;;;;;;;;;;;;;;;6157558;23;19928;-82
2023/06/11 16:29:13;;;;;;;;;;;;;;;;;;6182461;23;20116;-82
2023/06/11 16:31:39;;;;;;;;;;;;;;;;;;6157621;23;19924;-81
2023/06/11 16:34:05;;;;;;;;;;;;;;;;;;6182290;23;20445;-82
2023/06/11 16:36:31;;;;;;;;;;;;;;;;;;6182065;23;20255;-79
2023/06/11 16:38:57;;;;;;;;;;;;;;;;;;6182629;23;19924;-82
2023/06/11 16:41:23;;;;;;;;;;;;;;;;;;6181755;23;19931;-82
2023/06/11 16:43:49;;;;;;;;;;;;;;;;;;6157790;23;19962;-82
2023/06/11 16:46:15;;;;;;;;;;;;;;;;;;6182481;23;19959;-82
2023/06/11 16:48:41;;;;;;;;;;;;;;;;;;6181487;23;20181;-82
2023/06/11 16:51:07;;;;;;;;;;;;;;;;;;6156889;23;19920;-82
2023/06/11 16:53:33;;;;;;;;;;;;;;;;;;6181267;23;20260;-82
2023/06/11 16:55:59;;;;;;;;;;;;;;;;;;6181962;23;19924;-82
2023/06/11 16:58:25;;;;;;;;;;;;;;;;;;6178166;23;19920;-82
2023/06/11 17:00:51;;;;;;;;;;;;;;;;;;6150088;23;19956;-82
2023/06/11 17:03:17;;;;;;;;;;;;;;;;;;6175383;23;20320;-82
2023/06/11 17:05:43;;;;;;;;;;;;;;;;;;6175015;23;20566;-83
2023/06/11 17:08:09;;;;;;;;;;;;;;;;;;6174878;23;19924;-82
2023/06/11 17:10:35;;;;;;;;;;;;;;;;;;6174734;23;20362;-82
2023/06/11 17:13:01;;;;;;;;;;;;;;;;;;6173951;23;20012;-81
2023/06/11 17:15:27;;;;;;;;;;;;;;;;;;6175598;23;19927;-77
2023/06/11 17:17:54;;;;;;;;;;;;;;;;;;6174430;23;19924;-80
2023/06/11 17:20:20;;;;;;;;;;;;;;;;;;6173916;23;19946;-81
2023/06/11 17:22:46;;;;;;;;;;;;;;;;;;6199503;23;20331;-80
2023/06/11 17:25:11;;;;;;;;;;;;;;;;;;6174411;23;19931;-81
